Погода Оризонтинана неделю

Риу-Гранди-ду-Сул, Бразилия

04 - 10 февраля
  • 04февраля
    Сегодня
    +17°
    +29°
    Облачно с прояснениями
    ВремяПогодаТемператураВлажностьДавлениеВетер, м/сВероятность осадков
    00:00Облачно с прояснениями+21°C94 %730 мм1.2 м/с11 %
    03:00Практически безоблачно+21°C96 %729 мм1.5 м/с2 %
    06:00Практически безоблачно+20°C97 %730 мм1.7 м/с3 %
    09:00Ясно и безоблачно+24°C80 %732 мм1.0 м/с4 %
    12:00Пасмурно, сплошная облачность+28°C58 %732 мм3.7 м/с35 %
    15:00Облачно с прояснениями+28°C55 %731 мм4.2 м/с45 %
    18:00Небольшая облачность и лёгкий дождик+28°C56 %731 мм4.4 м/с57 %
    21:00Ясно и безоблачно+25°C70 %731 мм2.0 м/с5 %
  • 05февраля
    Воскресенье
    +15°
    +31°
    Ясно и безоблачно
    ВремяПогодаТемператураВлажностьДавлениеВетер, м/сВероятность осадков
    00:00Облачно с прояснениями+22°C75 %732 мм2.1 м/с5 %
    03:00Небольшая облачность+20°C75 %731 мм3.1 м/с5 %
    06:00Облачно с прояснениями+18°C76 %732 мм1.7 м/с5 %
    09:00Облачно с прояснениями+22°C63 %733 мм0.7 м/с5 %
    12:00Небольшая облачность+28°C45 %732 мм2.8 м/с5 %
    15:00Ясно и безоблачно+31°C35 %731 мм3.9 м/с5 %
    18:00Ясно и безоблачно+29°C37 %730 мм3.3 м/с5 %
    21:00Ясно и безоблачно+24°C52 %730 мм2.5 м/с5 %
  • 06февраля
    Понедельник
    +19°
    +34°
    Ясно и безоблачно
    ВремяПогодаТемператураВлажностьДавлениеВетер, м/сВероятность осадков
    00:00Ясно и безоблачно+19°C73 %731 мм2.0 м/с5 %
    03:00Практически безоблачно+18°C79 %730 мм1.1 м/с5 %
    06:00Ясно и безоблачно+16°C88 %730 мм1.6 м/с5 %
    09:00Ясно и безоблачно+23°C59 %732 мм1.3 м/с5 %
    12:00Практически безоблачно+29°C36 %732 мм0.7 м/с5 %
    15:00Ясно и безоблачно+33°C29 %731 мм1.5 м/с5 %
    18:00Ясно и безоблачно+32°C31 %730 мм4.3 м/с5 %
    21:00Ясно и безоблачно+27°C43 %730 мм2.9 м/с5 %
  • 07февраля
    Вторник
    +19°
    +36°
    Ясно и безоблачно
    ВремяПогодаТемператураВлажностьДавлениеВетер, м/сВероятность осадков
    00:00Ясно и безоблачно+21°C62 %731 мм2.0 м/с5 %
    03:00Ясно и безоблачно+20°C67 %730 мм2.1 м/с5 %
    06:00Ясно и безоблачно+19°C75 %730 мм2.0 м/с5 %
    09:00Ясно и безоблачно+24°C56 %732 мм1.9 м/с6 %
    12:00Ясно и безоблачно+32°C33 %732 мм1.0 м/с5 %
    15:00Ясно и безоблачно+35°C27 %731 мм2.7 м/с5 %
    18:00Ясно и безоблачно+34°C27 %729 мм4.4 м/с3 %
    21:00Ясно и безоблачно+28°C46 %730 мм2.2 м/с12 %
  • 08февраля
    Среда
    +21°
    +37°
    Ясно и безоблачно
    ВремяПогодаТемператураВлажностьДавлениеВетер, м/сВероятность осадков
    00:00Ясно и безоблачно+24°C49 %731 мм3.0 м/с5 %
    03:00Ясно и безоблачно+22°C64 %730 мм1.7 м/с10 %
    06:00Ясно и безоблачно+20°C69 %730 мм1.9 м/с6 %
    09:00Ясно и безоблачно+25°C54 %731 мм2.2 м/с5 %
    12:00Ясно и безоблачно+33°C32 %731 мм2.0 м/с5 %
    15:00Ясно и безоблачно+36°C25 %730 мм1.2 м/с5 %
    18:00Ясно и безоблачно+35°C26 %729 мм4.2 м/с10 %
    21:00Ясно и безоблачно+29°C40 %729 мм2.1 м/с30 %
Мы используем cookies
Соглашаюсь